createdAt,value
2018-03-02T00:01:49.341Z,99316.34
2018-03-02T00:04:17.786Z,99310.88
2018-03-02T00:06:46.268Z,99315.25
2018-03-02T00:09:14.692Z,99312.38
2018-03-02T00:11:43.109Z,99303.31
2018-03-02T00:14:11.599Z,99306.95
2018-03-02T00:16:40.032Z,99297.06
2018-03-02T00:19:08.456Z,99296.17
2018-03-02T00:21:36.938Z,99290.66
2018-03-02T00:24:05.374Z,99287.71
2018-03-02T00:26:33.799Z,99294.52
2018-03-02T00:29:02.304Z,99294.55
2018-03-02T00:31:30.719Z,99287.17
2018-03-02T00:33:59.143Z,99285.80
2018-03-02T00:36:27.598Z,99290.03
2018-03-02T00:38:56.028Z,99292.40
2018-03-02T00:41:24.456Z,99291.11
2018-03-02T00:43:52.928Z,99283.34
2018-03-02T00:46:21.342Z,99277.69
2018-03-02T00:48:49.781Z,99278.61
2018-03-02T00:51:18.258Z,99278.91
2018-03-02T00:53:46.688Z,99264.78
2018-03-02T00:56:15.119Z,99270.02
2018-03-02T00:58:43.570Z,99268.86
2018-03-02T01:01:11.982Z,99257.87
2018-03-02T01:03:40.408Z,99258.72
2018-03-02T01:06:08.898Z,99266.02
2018-03-02T01:08:37.337Z,99264.77
2018-03-02T01:11:05.764Z,99257.47
2018-03-02T01:13:34.233Z,99256.95
2018-03-02T01:16:02.665Z,99260.19
2018-03-02T01:18:31.100Z,99249.01
2018-03-02T01:20:59.566Z,99256.80
2018-03-02T01:23:27.996Z,99249.14
2018-03-02T01:25:56.406Z,99241.97
2018-03-02T01:28:24.887Z,99257.45
2018-03-02T01:30:53.316Z,99241.75
2018-03-02T01:33:21.726Z,99236.16
2018-03-02T01:35:50.204Z,99233.50
2018-03-02T01:38:18.655Z,99237.95
2018-03-02T01:40:47.087Z,99230.34
2018-03-02T01:43:15.560Z,99214.29
2018-03-02T01:45:44.011Z,99214.81
2018-03-02T01:48:12.439Z,99211.81
2018-03-02T01:50:40.913Z,99210.95
2018-03-02T01:53:09.331Z,99211.67
2018-03-02T01:55:37.750Z,99202.25
2018-03-02T01:58:06.423Z,99195.32
2018-03-02T02:00:34.846Z,99192.86
2018-03-02T02:03:03.345Z,99192.73
2018-03-02T02:05:31.823Z,99190.73
2018-03-02T02:08:00.247Z,99188.97
2018-03-02T02:10:28.670Z,99192.91
2018-03-02T02:12:57.143Z,99186.45
2018-03-02T02:15:25.575Z,99191.40
2018-03-02T02:17:54.012Z,99194.17
2018-03-02T02:20:22.558Z,99181.78
2018-03-02T02:22:50.983Z,99174.84
2018-03-02T02:25:19.412Z,99174.38
2018-03-02T02:27:47.889Z,99179.63
2018-03-02T02:30:16.332Z,99168.09
2018-03-02T02:32:44.761Z,99165.80
2018-03-02T02:35:13.252Z,99160.83
2018-03-02T02:37:41.666Z,99162.47
2018-03-02T02:40:10.139Z,99165.11
2018-03-02T02:42:38.592Z,99158.31
2018-03-02T02:45:07.023Z,99167.89
2018-03-02T02:47:35.448Z,99163.59
2018-03-02T02:50:03.920Z,99155.83
2018-03-02T02:52:32.370Z,99153.73
2018-03-02T02:55:00.791Z,99155.50
2018-03-02T02:57:29.281Z,99163.36
2018-03-02T02:59:57.707Z,99154.20
2018-03-02T03:02:26.132Z,99154.73
2018-03-02T03:04:54.622Z,99154.31
2018-03-02T03:07:23.045Z,99154.61
2018-03-02T03:09:51.462Z,99149.73
2018-03-02T03:12:19.918Z,99155.61
2018-03-02T03:14:48.387Z,99149.20
2018-03-02T03:17:16.806Z,99149.22
2018-03-02T03:19:45.290Z,99149.67
2018-03-02T03:22:13.710Z,99137.88
2018-03-02T03:24:42.133Z,99138.23
2018-03-02T03:27:10.605Z,99137.94
2018-03-02T03:29:39.025Z,99130.94
2018-03-02T03:32:07.472Z,99127.59
2018-03-02T03:34:35.947Z,99126.89
2018-03-02T03:37:04.384Z,99119.55
2018-03-02T03:39:32.815Z,99120.85
2018-03-02T03:42:01.273Z,99127.02
2018-03-02T03:44:29.720Z,99112.20
2018-03-02T03:46:58.147Z,99112.45
2018-03-02T03:49:26.640Z,99109.81
2018-03-02T03:51:55.062Z,99117.98
2018-03-02T03:54:23.482Z,99118.09
2018-03-02T03:56:51.990Z,99115.05
2018-03-02T03:59:20.416Z,99111.22
2018-03-02T04:01:48.869Z,99112.98
2018-03-02T04:04:17.337Z,99114.41
2018-03-02T04:06:45.759Z,99113.33
2018-03-02T04:09:14.192Z,99116.75
2018-03-02T04:11:42.707Z,99107.14
2018-03-02T04:14:11.138Z,99108.58
2018-03-02T04:16:39.565Z,99101.19
2018-03-02T04:19:08.038Z,99099.23
2018-03-02T04:21:36.490Z,99109.22
2018-03-02T04:24:04.925Z,99102.97
2018-03-02T04:26:33.407Z,99095.61
2018-03-02T04:29:01.826Z,99090.50
2018-03-02T04:31:30.276Z,99085.80
2018-03-02T04:33:58.752Z,99090.20
2018-03-02T04:36:27.183Z,99084.56
2018-03-02T04:38:55.618Z,99085.40
2018-03-02T04:41:24.092Z,99077.81
2018-03-02T04:43:52.534Z,99079.40
2018-03-02T04:46:20.991Z,99078.92
2018-03-02T04:48:49.476Z,99072.34
2018-03-02T04:51:17.924Z,99071.20
2018-03-02T04:53:46.368Z,99068.76
2018-03-02T04:56:14.847Z,99068.81
2018-03-02T04:58:43.274Z,99075.33
2018-03-02T05:01:11.693Z,99067.92
2018-03-02T05:03:40.213Z,99063.71
2018-03-02T05:06:08.613Z,99056.84
2018-03-02T05:08:37.163Z,99061.52
2018-03-02T05:11:05.636Z,99059.31
2018-03-02T05:13:34.075Z,99050.39
2018-03-02T05:16:02.503Z,99052.67
2018-03-02T05:18:30.978Z,99054.53
2018-03-02T05:20:59.397Z,99042.50
2018-03-02T05:23:27.827Z,99053.72
2018-03-02T05:25:56.310Z,99055.00
2018-03-02T05:28:24.739Z,99044.98
2018-03-02T05:30:53.182Z,99047.33
2018-03-02T05:33:21.676Z,99036.45
2018-03-02T05:35:50.097Z,99035.01
2018-03-02T05:38:18.517Z,99030.70
2018-03-02T05:40:46.979Z,99028.17
2018-03-02T05:43:15.418Z,99027.23
2018-03-02T05:45:43.855Z,99023.73
2018-03-02T05:48:12.322Z,99030.77
2018-03-02T05:50:40.756Z,99022.15
2018-03-02T05:53:09.193Z,99031.84
2018-03-02T05:55:37.668Z,99032.59
2018-03-02T05:58:06.106Z,99027.48
2018-03-02T06:00:34.557Z,99024.96
2018-03-02T06:03:03.036Z,99017.62
2018-03-02T06:05:31.487Z,99011.53
2018-03-02T06:07:59.910Z,99009.47
2018-03-02T06:10:28.639Z,99007.53
2018-03-02T06:12:57.094Z,99012.77
2018-03-02T06:15:25.518Z,99012.75
2018-03-02T06:17:53.993Z,99015.63
2018-03-02T06:20:22.422Z,99008.83
2018-03-02T06:22:50.852Z,99004.89
2018-03-02T06:25:19.366Z,98997.90
2018-03-02T06:27:47.814Z,99009.00
2018-03-02T06:30:16.246Z,99002.78
2018-03-02T06:32:44.728Z,99007.46
2018-03-02T06:35:13.155Z,99005.08
2018-03-02T06:37:41.588Z,99005.47
2018-03-02T06:40:10.076Z,99001.48
2018-03-02T06:42:38.494Z,98995.02
2018-03-02T06:45:06.924Z,98994.61
2018-03-02T06:47:35.407Z,99003.47
2018-03-02T06:50:03.842Z,98998.08
2018-03-02T06:52:32.266Z,98989.98
2018-03-02T06:55:00.742Z,98991.92
2018-03-02T06:57:29.187Z,98987.86
2018-03-02T06:59:57.614Z,98982.70
2018-03-02T07:02:26.086Z,98983.20
2018-03-02T07:04:54.518Z,98983.56
2018-03-02T07:07:22.956Z,98985.33
2018-03-02T07:09:51.441Z,98979.70
2018-03-02T07:12:19.861Z,98977.94
2018-03-02T07:14:48.286Z,98976.42
2018-03-02T07:17:16.806Z,98990.69
2018-03-02T07:19:45.238Z,98979.47
2018-03-02T07:22:13.674Z,98978.87
2018-03-02T07:24:42.129Z,98978.34
2018-03-02T07:27:10.561Z,98977.55
2018-03-02T07:29:38.982Z,98974.72
2018-03-02T07:32:07.462Z,98978.77
2018-03-02T07:34:35.886Z,98971.66
2018-03-02T07:37:04.318Z,98963.16
2018-03-02T07:39:32.801Z,98970.18
2018-03-02T07:42:01.227Z,98953.99
2018-03-02T07:44:29.654Z,98949.99
2018-03-02T07:46:58.147Z,98946.44
2018-03-02T07:49:26.576Z,98939.95
2018-03-02T07:51:54.993Z,98943.70
2018-03-02T07:54:23.483Z,98938.46
2018-03-02T07:56:51.907Z,98934.52
2018-03-02T07:59:20.317Z,98933.00
2018-03-02T08:01:48.774Z,98927.84
2018-03-02T08:04:17.210Z,98921.67
2018-03-02T08:06:45.644Z,98917.35
2018-03-02T08:09:14.104Z,98912.88
2018-03-02T08:11:42.547Z,98904.23
2018-03-02T08:14:10.975Z,98911.37
2018-03-02T08:16:39.444Z,98904.58
2018-03-02T08:19:07.869Z,98909.91
2018-03-02T08:21:36.314Z,98910.01
2018-03-02T08:24:04.769Z,98905.84
2018-03-02T08:26:33.203Z,98908.60
2018-03-02T08:29:01.644Z,98909.33
2018-03-02T08:31:30.103Z,98914.73
2018-03-02T08:33:58.535Z,98911.23
2018-03-02T08:36:26.970Z,98912.37
2018-03-02T08:38:55.444Z,98906.85
2018-03-02T08:41:23.858Z,98903.63
2018-03-02T08:43:52.287Z,98898.12
2018-03-02T08:46:20.777Z,98900.19
2018-03-02T08:48:49.201Z,98899.08
2018-03-02T08:51:17.692Z,98892.20
2018-03-02T08:53:46.195Z,98891.98
2018-03-02T08:56:14.634Z,98891.47
2018-03-02T08:58:43.051Z,98880.53
2018-03-02T09:01:11.522Z,98872.17
2018-03-02T09:03:39.946Z,98865.17
2018-03-02T09:06:08.377Z,98875.64
2018-03-02T09:08:36.851Z,98866.30
2018-03-02T09:11:05.276Z,98869.80
2018-03-02T09:13:33.727Z,98868.08
2018-03-02T09:16:02.200Z,98865.39
2018-03-02T09:18:30.628Z,98859.53
2018-03-02T09:20:59.044Z,98854.65
2018-03-02T09:23:27.517Z,98851.14
2018-03-02T09:25:56.007Z,98846.83
2018-03-02T09:28:24.430Z,98833.95
2018-03-02T09:30:52.911Z,98841.31
2018-03-02T09:33:21.331Z,98830.19
2018-03-02T09:35:49.747Z,98848.83
2018-03-02T09:38:18.209Z,98848.35
2018-03-02T09:40:46.626Z,98852.70
2018-03-02T09:43:15.068Z,98847.23
2018-03-02T09:45:43.552Z,98836.58
2018-03-02T09:48:11.995Z,98827.16
2018-03-02T09:50:40.441Z,98832.88
2018-03-02T09:53:08.965Z,98826.02
2018-03-02T09:55:37.391Z,98822.59
2018-03-02T09:58:05.811Z,98821.95
2018-03-02T10:00:34.298Z,98812.48
2018-03-02T10:03:02.733Z,98813.88
2018-03-02T10:05:31.159Z,98818.52
2018-03-02T10:07:59.653Z,98809.70
2018-03-02T10:10:28.110Z,98810.08
2018-03-02T10:12:56.522Z,98801.12
2018-03-02T10:15:25.000Z,98799.64
2018-03-02T10:17:53.421Z,98797.85
2018-03-02T10:20:21.838Z,98795.61
2018-03-02T10:22:50.371Z,98797.59
2018-03-02T10:25:18.795Z,98806.31
2018-03-02T10:27:47.228Z,98802.89
2018-03-02T10:30:15.738Z,98799.28
2018-03-02T10:32:44.142Z,98801.41
2018-03-02T10:35:12.596Z,98792.15
2018-03-02T10:37:41.072Z,98783.16
2018-03-02T10:40:09.507Z,98786.66
2018-03-02T10:42:37.934Z,98774.52
2018-03-02T10:45:06.415Z,98778.37
2018-03-02T10:47:34.839Z,98772.70
2018-03-02T10:50:03.277Z,98769.13
2018-03-02T10:52:31.769Z,98773.06
2018-03-02T10:55:00.205Z,98775.63
2018-03-02T10:57:28.649Z,98766.11
2018-03-02T10:59:57.130Z,98767.58
2018-03-02T11:02:25.562Z,98769.99
2018-03-02T11:04:59.746Z,98759.32
2018-03-02T11:07:28.169Z,98757.81
2018-03-02T11:09:56.629Z,98749.44
2018-03-02T11:12:25.137Z,98741.16
2018-03-02T11:14:53.600Z,98739.82
2018-03-02T11:17:22.014Z,98742.92
2018-03-02T11:19:50.491Z,98742.37
2018-03-02T11:22:18.918Z,98740.89
2018-03-02T11:24:47.347Z,98724.09
2018-03-02T11:27:15.823Z,98723.61
2018-03-02T11:29:44.241Z,98721.55
2018-03-02T11:32:12.674Z,98725.31
2018-03-02T11:34:41.163Z,98716.03
2018-03-02T11:37:09.588Z,98712.78
2018-03-02T11:39:38.015Z,98709.81
2018-03-02T11:42:06.481Z,98704.08
2018-03-02T11:44:34.898Z,98705.55
2018-03-02T11:47:03.360Z,98691.77
2018-03-02T11:49:31.831Z,98693.64
2018-03-02T11:52:00.260Z,98672.47
2018-03-02T11:54:28.687Z,98674.91
2018-03-02T11:56:57.172Z,98679.84
2018-03-02T11:59:25.608Z,98672.70
2018-03-02T12:01:54.066Z,98666.61
2018-03-02T12:04:22.567Z,98663.29
2018-03-02T12:06:51.002Z,98663.59
2018-03-02T12:09:19.433Z,98656.72
2018-03-02T12:11:47.890Z,98658.50
2018-03-02T12:14:16.311Z,98652.60
2018-03-02T12:16:44.787Z,98654.22
2018-03-02T12:19:13.251Z,98652.28
2018-03-02T12:21:41.686Z,98648.97
2018-03-02T12:24:10.112Z,98651.70
2018-03-02T12:26:38.632Z,98637.17
2018-03-02T12:29:07.047Z,98630.42
2018-03-02T12:31:35.475Z,98648.62
2018-03-02T12:34:03.956Z,98636.45
2018-03-02T12:36:32.410Z,98643.33
2018-03-02T12:39:00.848Z,98630.83
2018-03-02T12:41:29.313Z,98643.11
2018-03-02T12:43:57.749Z,98640.77
2018-03-02T12:46:26.178Z,98634.89
2018-03-02T12:48:54.646Z,98633.77
2018-03-02T12:51:23.114Z,98636.37
2018-03-02T12:53:51.550Z,98640.28
2018-03-02T12:56:20.042Z,98637.69
2018-03-02T12:58:48.460Z,98624.80
2018-03-02T13:01:16.878Z,98637.98
2018-03-02T13:03:45.352Z,98625.16
2018-03-02T13:06:13.771Z,98622.30
2018-03-02T13:08:42.188Z,98622.06
2018-03-02T13:11:10.660Z,98629.27
2018-03-02T13:13:39.340Z,98617.56
2018-03-02T13:16:07.776Z,98630.02
2018-03-02T13:18:43.235Z,98620.06
2018-03-02T13:21:11.668Z,98629.23
2018-03-02T13:23:40.090Z,98632.08
2018-03-02T13:26:08.592Z,98626.42
2018-03-02T13:28:47.991Z,98622.45
2018-03-02T13:31:16.553Z,98612.00
2018-03-02T13:33:56.853Z,98610.48
2018-03-02T13:36:25.328Z,98601.36
2018-03-02T13:38:53.737Z,98609.10
2018-03-02T13:41:33.961Z,98612.85
2018-03-02T13:44:02.413Z,98612.77
2018-03-02T13:46:30.851Z,98615.13
2018-03-02T13:49:11.200Z,98609.44
2018-03-02T13:51:39.630Z,98617.23
2018-03-02T13:54:08.057Z,98615.50
2018-03-02T13:56:48.269Z,98619.31
2018-03-02T13:59:16.698Z,98618.21
2018-03-02T14:01:45.155Z,98609.77
2018-03-02T14:04:25.538Z,98614.11
2018-03-02T14:06:53.971Z,98609.48
2018-03-02T14:09:22.421Z,98616.44
2018-03-02T14:11:50.876Z,98605.66
2018-03-02T14:14:19.285Z,98606.92
2018-03-02T14:16:47.723Z,98608.77
2018-03-02T14:19:16.178Z,98610.49
2018-03-02T14:21:44.595Z,98604.81
2018-03-02T14:24:13.016Z,98606.95
2018-03-02T14:26:41.484Z,98609.77
2018-03-02T14:29:09.898Z,98605.31
2018-03-02T14:31:38.321Z,98608.91
2018-03-02T14:34:06.827Z,98598.95
2018-03-02T14:36:35.268Z,98596.86
2018-03-02T14:39:03.742Z,98602.87
2018-03-02T14:41:32.207Z,98604.78
2018-03-02T14:44:00.633Z,98609.32
2018-03-02T14:46:29.061Z,98602.69
2018-03-02T14:48:57.532Z,98592.42
2018-03-02T14:51:25.956Z,98593.95
2018-03-02T14:53:54.369Z,98603.05
2018-03-02T14:56:22.826Z,98596.33
2018-03-02T14:58:51.258Z,98592.69
2018-03-02T15:01:19.722Z,98591.13
2018-03-02T15:03:48.214Z,98581.47
2018-03-02T15:06:16.637Z,98585.89
2018-03-02T15:08:45.061Z,98582.17
2018-03-02T15:11:13.557Z,98594.08
2018-03-02T15:13:42.026Z,98590.48
2018-03-02T15:16:10.452Z,98597.64
2018-03-02T15:18:38.911Z,98603.31
2018-03-02T15:21:07.326Z,98596.30
2018-03-02T15:23:35.777Z,98609.83
2018-03-02T15:26:04.281Z,98593.54
2018-03-02T15:28:32.706Z,98597.95
2018-03-02T15:31:01.136Z,98604.36
2018-03-02T15:33:29.719Z,98597.83
2018-03-02T15:35:58.169Z,98599.19
2018-03-02T15:38:26.608Z,98606.55
2018-03-02T15:40:55.078Z,98602.70
2018-03-02T15:43:23.521Z,98608.58
2018-03-02T15:45:51.940Z,98603.05
2018-03-02T15:48:20.412Z,98606.33
2018-03-02T15:50:48.840Z,98604.88
2018-03-02T15:53:17.270Z,98606.19
2018-03-02T15:55:45.735Z,98601.47
2018-03-02T15:58:14.194Z,98600.59
2018-03-02T16:00:42.650Z,98605.30
2018-03-02T16:03:11.132Z,98604.94
2018-03-02T16:05:39.567Z,98605.47
2018-03-02T16:08:07.983Z,98610.28
2018-03-02T16:10:36.465Z,98607.06
2018-03-02T16:13:04.886Z,98611.44
2018-03-02T16:15:33.312Z,98614.66
2018-03-02T16:18:01.806Z,98616.30
2018-03-02T16:20:30.236Z,98615.63
2018-03-02T16:22:58.668Z,98625.41
2018-03-02T16:25:27.292Z,98619.88
2018-03-02T16:27:55.716Z,98621.49
2018-03-02T16:30:24.138Z,98627.42
2018-03-02T16:32:52.608Z,98615.95
2018-03-02T16:35:21.028Z,98621.77
2018-03-02T16:37:49.456Z,98639.32
2018-03-02T16:40:17.923Z,98639.58
2018-03-02T16:42:46.352Z,98644.16
2018-03-02T16:45:14.774Z,98646.16
2018-03-02T16:47:43.252Z,98642.28
2018-03-02T16:50:11.687Z,98641.88
2018-03-02T16:52:40.120Z,98650.23
2018-03-02T16:55:08.635Z,98659.59
2018-03-02T16:57:37.046Z,98656.27
2018-03-02T17:00:05.472Z,98652.83
2018-03-02T17:02:33.939Z,98657.66
2018-03-02T17:05:02.369Z,98660.19
2018-03-02T17:07:30.791Z,98670.47
2018-03-02T17:09:59.247Z,98665.21
2018-03-02T17:12:27.658Z,98659.83
2018-03-02T17:14:56.075Z,98666.64
2018-03-02T17:17:24.545Z,98674.15
2018-03-02T17:19:52.975Z,98676.11
2018-03-02T17:22:21.396Z,98687.08
2018-03-02T17:24:49.975Z,98679.73
2018-03-02T17:27:18.401Z,98680.60
2018-03-02T17:29:46.848Z,98686.41
2018-03-02T17:32:15.345Z,98684.97
2018-03-02T17:34:43.771Z,98685.45
2018-03-02T17:37:12.195Z,98693.83
2018-03-02T17:39:40.687Z,98700.50
2018-03-02T17:42:09.126Z,98707.37
2018-03-02T17:44:37.542Z,98714.98
2018-03-02T17:47:05.993Z,98712.97
2018-03-02T17:49:34.481Z,98712.92
2018-03-02T17:52:02.911Z,98714.16
2018-03-02T17:54:31.370Z,98719.17
2018-03-02T17:56:59.792Z,98724.22
2018-03-02T17:59:28.210Z,98730.16
2018-03-02T18:01:56.676Z,98730.05
2018-03-02T18:04:25.107Z,98740.62
2018-03-02T18:06:53.564Z,98740.73
2018-03-02T18:09:22.022Z,98734.02
2018-03-02T18:11:50.452Z,98739.05
2018-03-02T18:14:18.874Z,98736.91
2018-03-02T18:16:47.340Z,98747.45
2018-03-02T18:19:15.764Z,98740.27
2018-03-02T18:21:44.193Z,98749.26
2018-03-02T18:24:12.775Z,98747.36
2018-03-02T18:26:41.219Z,98751.72
2018-03-02T18:29:09.665Z,98754.66
2018-03-02T18:31:38.132Z,98753.13
2018-03-02T18:34:06.557Z,98752.34
2018-03-02T18:36:35.000Z,98754.58
2018-03-02T18:39:03.532Z,98750.95
2018-03-02T18:41:31.966Z,98748.64
2018-03-02T18:44:00.407Z,98756.02
2018-03-02T18:46:28.896Z,98756.79
2018-03-02T18:48:57.325Z,98756.09
2018-03-02T18:51:25.768Z,98755.36
2018-03-02T18:53:54.405Z,98748.97
2018-03-02T18:56:22.826Z,98750.47
2018-03-02T18:58:51.283Z,98752.55
2018-03-02T19:01:19.758Z,98750.31
2018-03-02T19:03:48.183Z,98754.73
2018-03-02T19:06:16.630Z,98755.95
2018-03-02T19:08:45.160Z,98762.27
2018-03-02T19:11:13.621Z,98762.47
2018-03-02T19:13:42.042Z,98765.58
2018-03-02T19:16:10.510Z,98774.42
2018-03-02T19:18:38.952Z,98776.26
2018-03-02T19:21:07.459Z,98778.93
2018-03-02T19:23:35.994Z,98779.28
2018-03-02T19:26:04.460Z,98778.07
2018-03-02T19:28:32.962Z,98769.05
2018-03-02T19:31:01.542Z,98761.48
2018-03-02T19:33:30.086Z,98770.50
2018-03-02T19:35:58.639Z,98769.17
2018-03-02T19:38:27.232Z,98766.69
2018-03-02T19:40:55.756Z,98769.30
2018-03-02T19:43:24.286Z,98774.25
2018-03-02T19:45:53.139Z,98774.63
2018-03-02T19:48:21.675Z,98774.34
2018-03-02T19:50:50.156Z,98779.92
2018-03-02T19:53:18.698Z,98774.33
2018-03-02T19:55:47.198Z,98773.08
2018-03-02T19:58:15.772Z,98780.80
2018-03-02T20:00:44.324Z,98769.14
2018-03-02T20:03:12.783Z,98769.45
2018-03-02T20:05:41.313Z,98770.38
2018-03-02T20:08:09.868Z,98769.36
2018-03-02T20:10:38.358Z,98768.27
2018-03-02T20:13:06.846Z,98769.39
2018-03-02T20:15:35.415Z,98778.69
2018-03-02T20:18:03.924Z,98779.83
2018-03-02T20:20:32.408Z,98779.29
2018-03-02T20:23:01.055Z,98783.64
2018-03-02T20:25:29.474Z,98789.56
2018-03-02T20:27:57.902Z,98781.81
2018-03-02T20:30:26.373Z,98777.83
2018-03-02T20:32:54.803Z,98779.93
2018-03-02T20:35:23.263Z,98772.80
2018-03-02T20:37:51.728Z,98771.34
2018-03-02T20:40:20.170Z,98770.41
2018-03-02T20:42:48.591Z,98770.35
2018-03-02T20:45:17.078Z,98764.42
2018-03-02T20:47:45.510Z,98762.05
2018-03-02T20:50:13.950Z,98758.75
2018-03-02T20:52:42.438Z,98752.06
2018-03-02T20:55:10.863Z,98750.03
2018-03-02T20:57:39.304Z,98751.27
2018-03-02T21:00:07.761Z,98750.98
2018-03-02T21:02:36.193Z,98756.13
2018-03-02T21:05:04.614Z,98751.54
2018-03-02T21:07:33.088Z,98754.14
2018-03-02T21:10:01.520Z,98753.38
2018-03-02T21:12:29.957Z,98751.92
2018-03-02T21:14:58.459Z,98746.78
2018-03-02T21:17:26.890Z,98746.28
2018-03-02T21:19:55.314Z,98745.13
2018-03-02T21:22:24.083Z,98751.59
2018-03-02T21:24:52.999Z,98751.22
2018-03-02T21:27:21.424Z,98742.28
2018-03-02T21:29:49.902Z,98748.17
2018-03-02T21:32:18.334Z,98752.90
2018-03-02T21:34:46.745Z,98746.02
2018-03-02T21:37:15.206Z,98746.66
2018-03-02T21:39:43.652Z,98742.77
2018-03-02T21:42:12.091Z,98742.79
2018-03-02T21:44:40.566Z,98752.72
2018-03-02T21:47:08.989Z,98752.42
2018-03-02T21:49:37.460Z,98759.44
2018-03-02T21:52:05.926Z,98753.88
2018-03-02T21:54:34.343Z,98756.53
2018-03-02T21:57:02.780Z,98748.52
2018-03-02T21:59:31.250Z,98749.99
2018-03-02T22:02:00.638Z,98752.56
2018-03-02T22:04:29.521Z,98745.80
2018-03-02T22:06:58.009Z,98741.42
2018-03-02T22:09:26.442Z,98740.47
2018-03-02T22:11:54.858Z,98739.17
2018-03-02T22:14:23.328Z,98738.96
2018-03-02T22:16:51.757Z,98737.22
2018-03-02T22:19:20.180Z,98732.66
2018-03-02T22:21:48.634Z,98731.56
2018-03-02T22:24:17.048Z,98724.15
2018-03-02T22:26:45.506Z,98731.56
2018-03-02T22:29:13.969Z,98715.99
2018-03-02T22:31:42.392Z,98717.19
2018-03-02T22:34:10.814Z,98720.66
2018-03-02T22:36:39.293Z,98719.68
2018-03-02T22:39:07.711Z,98723.66
2018-03-02T22:41:36.126Z,98721.56
2018-03-02T22:44:04.591Z,98730.75
2018-03-02T22:46:33.010Z,98723.69
2018-03-02T22:49:01.444Z,98726.85
2018-03-02T22:51:29.901Z,98729.98
2018-03-02T22:53:58.326Z,98722.09
2018-03-02T22:56:26.752Z,98720.47
2018-03-02T22:58:55.210Z,98725.64
2018-03-02T23:01:23.631Z,98724.23
2018-03-02T23:03:52.047Z,98720.34
2018-03-02T23:06:20.501Z,98727.04
2018-03-02T23:08:48.956Z,98735.14
2018-03-02T23:11:17.388Z,98730.58
2018-03-02T23:13:45.872Z,98731.84
2018-03-02T23:16:14.297Z,98738.24
2018-03-02T23:18:42.736Z,98730.06
2018-03-02T23:21:11.190Z,98734.63
2018-03-02T23:23:39.619Z,98730.70
2018-03-02T23:26:08.056Z,98733.66
2018-03-02T23:28:36.527Z,98728.76
2018-03-02T23:31:04.961Z,98730.34
2018-03-02T23:33:33.384Z,98724.31
2018-03-02T23:36:01.862Z,98731.20
2018-03-02T23:38:30.291Z,98722.30
2018-03-02T23:40:58.722Z,98724.59
2018-03-02T23:43:27.188Z,98730.63
2018-03-02T23:45:55.616Z,98721.61
2018-03-02T23:48:24.045Z,98726.50
2018-03-02T23:50:52.504Z,98732.09
2018-03-02T23:53:20.937Z,98735.90
2018-03-02T23:55:49.373Z,98738.83
2018-03-02T23:58:17.842Z,98732.22
